Zipporah — WDG3234 — position and weather

sailwx.info

Track history (hours):
 
Tides and Currents Weather Stations Pressure Air Temp Water Temp Dewpoint Dewpoint Depression Visibility Wind Speed Wind Dir Waves Ship Positions

Zipporah

Owner: Mann, Douglas S, Plymouth, MN. More information available from US FCC via Universal Licensing System and Coast Guard Vessel Documentation Center.

Last reported at 2018-May-14 05:37 UTC. Time now 2018-Jun-18 07:47 UTC.
Position N 17°56' W 063°23'.
Warning: this ship's position is 35 days out of date.

Type: Sailing vessel. MMSI: 367523920.

Date/timePositionNaut miles runAvg speedWind from/ knotsBaromVisibWave heightAir tempDewpointWater temp
2018-May-14 05:37N 17°56' W 063°23'1 6.8
2018-May-14 05:25N 17°55' W 063°22'4 7.0
2018-May-14 04:53N 17°53' W 063°19'3 6.8
2018-May-14 04:27N 17°52' W 063°16'4 6.8
2018-May-14 03:55N 17°50' W 063°13'4 7.0
2018-May-14 03:24N 17°48' W 063°10'4 7.5
2018-May-14 02:56N 17°46' W 063°07'3 6.3
2018-May-14 02:25N 17°44' W 063°04'55 7.3
2018-May-13 18:48N 17°12' W 062°16'6 8.4
2018-May-13 18:05N 17°08' W 062°11'1 8.3
2018-May-13 18:00N 17°08' W 062°11'5 8.3
2018-May-13 17:24N 17°06' W 062°06'3 8.0
2018-May-13 17:00N 17°04' W 062°03'4 6.9
2018-May-13 16:23N 17°01' W 061°60'3 8.0
2018-May-13 16:00N 16°59' W 061°57'4 7.8
2018-May-13 15:30N 16°57' W 061°54'3 6.7
2018-May-13 15:00N 16°58' W 061°51'4 7.2
2018-May-13 14:30N 16°60' W 061°48'2 3.7
2018-May-13 14:00N 17°01' W 061°46'0 0.0
2018-May-13 13:30N 17°01' W 061°46'0 0.0
2018-May-13 13:00N 17°01' W 061°46'  
2018-May-05 18:13N 17°01' W 061°46'0 0.0
2018-May-05 17:58N 17°01' W 061°46'1 1.3
2018-May-05 17:30N 17°01' W 061°47'3 5.6
2018-May-05 17:00N 16°59' W 061°45'3 5.9
2018-May-05 16:30N 17°01' W 061°42'3 6.3
2018-May-05 16:00N 17°03' W 061°40'1 2.6
2018-May-05 15:28N 17°04' W 061°40'  
Track history (hours):
 
Tides and Currents Weather Stations Pressure Air Temp Water Temp Dewpoint Dewpoint Depression Visibility Wind Speed Wind Dir Waves Ship Positions

Zipporah

Owner: Mann, Douglas S, Plymouth, MN. More information available from US FCC via Universal Licensing System and Coast Guard Vessel Documentation Center.

Last reported at 2018-May-14 05:37 UTC. Time now 2018-Jun-18 07:47 UTC.
Position N 17°56' W 063°23'.
Warning: this ship's position is 35 days out of date.

Type: Sailing vessel. MMSI: 367523920.

Date/timePositionNaut miles runAvg speedWind from/ knotsBaromVisibWave heightAir tempDewpointWater temp
2018-May-14 05:37N 17°56' W 063°23'1 6.8
2018-May-14 05:25N 17°55' W 063°22'4 7.0
2018-May-14 04:53N 17°53' W 063°19'3 6.8
2018-May-14 04:27N 17°52' W 063°16'4 6.8
2018-May-14 03:55N 17°50' W 063°13'4 7.0
2018-May-14 03:24N 17°48' W 063°10'4 7.5
2018-May-14 02:56N 17°46' W 063°07'3 6.3
2018-May-14 02:25N 17°44' W 063°04'55 7.3
2018-May-13 18:48N 17°12' W 062°16'6 8.4
2018-May-13 18:05N 17°08' W 062°11'1 8.3
2018-May-13 18:00N 17°08' W 062°11'5 8.3
2018-May-13 17:24N 17°06' W 062°06'3 8.0
2018-May-13 17:00N 17°04' W 062°03'4 6.9
2018-May-13 16:23N 17°01' W 061°60'3 8.0
2018-May-13 16:00N 16°59' W 061°57'4 7.8
2018-May-13 15:30N 16°57' W 061°54'3 6.7
2018-May-13 15:00N 16°58' W 061°51'4 7.2
2018-May-13 14:30N 16°60' W 061°48'2 3.7
2018-May-13 14:00N 17°01' W 061°46'0 0.0
2018-May-13 13:30N 17°01' W 061°46'0 0.0
2018-May-13 13:00N 17°01' W 061°46'  
2018-May-05 18:13N 17°01' W 061°46'0 0.0
2018-May-05 17:58N 17°01' W 061°46'1 1.3
2018-May-05 17:30N 17°01' W 061°47'3 5.6
2018-May-05 17:00N 16°59' W 061°45'3 5.9
2018-May-05 16:30N 17°01' W 061°42'3 6.3
2018-May-05 16:00N 17°03' W 061°40'1 2.6
2018-May-05 15:28N 17°04' W 061°40'  

Dump ship's entire track history